createdAt,value
2019-01-13T00:00:30.902Z,7.95
2019-01-13T00:01:30.706Z,7.95
2019-01-13T00:02:30.903Z,7.87
2019-01-13T00:03:30.699Z,7.88
2019-01-13T00:04:30.685Z,7.91
2019-01-13T00:05:30.878Z,7.95
2019-01-13T00:06:30.678Z,7.90
2019-01-13T00:07:30.664Z,7.93
2019-01-13T00:08:30.650Z,7.88
2019-01-13T00:09:30.644Z,7.87
2019-01-13T00:10:30.703Z,7.90
2019-01-13T00:11:30.680Z,7.97
2019-01-13T00:12:35.514Z,7.90
2019-01-13T00:13:30.617Z,7.94
2019-01-13T00:14:30.611Z,7.90
2019-01-13T00:15:30.614Z,7.97
2019-01-13T00:16:30.602Z,8.01
2019-01-13T00:17:30.592Z,8.00
2019-01-13T00:18:30.613Z,7.93
2019-01-13T00:19:30.784Z,7.94
2019-01-13T00:20:30.581Z,7.94
2019-01-13T00:21:30.586Z,7.88
2019-01-13T00:22:30.566Z,7.90
2019-01-13T00:23:30.559Z,7.88
2019-01-13T00:24:30.549Z,7.97
2019-01-13T00:25:30.560Z,7.95
2019-01-13T00:26:30.742Z,7.91
2019-01-13T00:27:30.543Z,7.94
2019-01-13T00:28:30.730Z,7.91
2019-01-13T00:29:30.523Z,7.95
2019-01-13T00:30:30.513Z,7.94
2019-01-13T00:31:30.509Z,7.94
2019-01-13T00:32:30.498Z,7.97
2019-01-13T00:33:30.497Z,8.05
2019-01-13T00:34:30.487Z,8.00
2019-01-13T00:35:31.980Z,7.98
2019-01-13T00:36:30.540Z,8.01
2019-01-13T00:37:30.470Z,8.05
2019-01-13T00:38:30.463Z,7.97
2019-01-13T00:39:30.489Z,7.98
2019-01-13T00:40:30.450Z,7.97
2019-01-13T00:41:30.448Z,7.97
2019-01-13T00:42:30.442Z,8.00
2019-01-13T00:43:30.640Z,7.98
2019-01-13T00:44:30.427Z,7.97
2019-01-13T00:45:30.436Z,7.98
2019-01-13T00:46:30.622Z,7.95
2019-01-13T00:47:30.415Z,8.08
2019-01-13T00:48:30.423Z,7.97
2019-01-13T00:49:30.414Z,7.98
2019-01-13T00:50:30.410Z,8.00
2019-01-13T00:51:30.388Z,8.01
2019-01-13T00:52:30.379Z,8.01
2019-01-13T00:53:30.392Z,7.95
2019-01-13T00:54:30.380Z,8.01
2019-01-13T00:55:30.356Z,7.95
2019-01-13T00:56:30.346Z,7.97
2019-01-13T00:57:30.352Z,7.98
2019-01-13T00:58:30.544Z,7.98
2019-01-13T00:59:30.353Z,8.00
2019-01-13T01:00:30.542Z,8.01
2019-01-13T01:01:30.324Z,7.98
2019-01-13T01:02:30.312Z,7.97
2019-01-13T01:03:30.314Z,7.97
2019-01-13T01:04:30.512Z,7.97
2019-01-13T01:05:30.502Z,7.97
2019-01-13T01:06:30.285Z,7.94
2019-01-13T01:07:30.281Z,7.97
2019-01-13T01:08:30.280Z,8.00
2019-01-13T01:09:30.286Z,8.05
2019-01-13T01:10:30.279Z,7.98
2019-01-13T01:11:30.270Z,8.00
2019-01-13T01:12:30.253Z,8.01
2019-01-13T01:13:30.244Z,8.00
2019-01-13T01:14:30.245Z,7.97
2019-01-13T01:15:30.242Z,7.94
2019-01-13T01:16:30.436Z,7.95
2019-01-13T01:17:30.220Z,8.01
2019-01-13T01:18:30.221Z,8.08
2019-01-13T01:19:30.214Z,8.01
2019-01-13T01:20:30.404Z,7.97
2019-01-13T01:21:30.222Z,8.03
2019-01-13T01:22:30.208Z,7.95
2019-01-13T01:23:30.191Z,7.94
2019-01-13T01:24:30.192Z,8.00
2019-01-13T01:25:30.177Z,7.97
2019-01-13T01:26:30.176Z,7.98
2019-01-13T01:27:30.171Z,7.94
2019-01-13T01:28:30.159Z,8.00
2019-01-13T01:29:30.373Z,7.95
2019-01-13T01:30:33.519Z,7.98
2019-01-13T01:31:30.154Z,8.06
2019-01-13T01:32:30.157Z,7.98
2019-01-13T01:33:30.128Z,7.93
2019-01-13T01:34:30.347Z,8.00
2019-01-13T01:35:30.123Z,7.98
2019-01-13T01:36:30.111Z,7.95
2019-01-13T01:37:30.109Z,7.95
2019-01-13T01:38:30.101Z,8.06
2019-01-13T01:39:30.312Z,7.97
2019-01-13T01:40:30.293Z,8.03
2019-01-13T01:41:30.089Z,8.05
2019-01-13T01:42:30.082Z,7.97
2019-01-13T01:43:30.061Z,7.98
2019-01-13T01:44:30.064Z,7.97
2019-01-13T01:45:30.051Z,8.05
2019-01-13T01:46:30.054Z,8.03
2019-01-13T01:47:30.067Z,8.01
2019-01-13T01:48:30.036Z,8.00
2019-01-13T01:49:30.031Z,8.01
2019-01-13T01:50:30.226Z,7.98
2019-01-13T01:51:30.024Z,8.03
2019-01-13T01:52:30.030Z,7.97
2019-01-13T01:53:30.008Z,7.97
2019-01-13T01:54:30.001Z,7.97
2019-01-13T01:55:29.993Z,8.00
2019-01-13T01:56:29.995Z,8.05
2019-01-13T01:57:29.995Z,8.03
2019-01-13T01:58:30.003Z,8.03
2019-01-13T01:59:29.985Z,8.00
2019-01-13T02:00:29.960Z,7.97
2019-01-13T02:01:29.969Z,8.03
2019-01-13T02:02:29.951Z,7.97
2019-01-13T02:03:29.971Z,8.05
2019-01-13T02:04:29.940Z,8.01
2019-01-13T02:05:29.930Z,8.05
2019-01-13T02:06:29.926Z,8.01
2019-01-13T02:07:29.968Z,8.03
2019-01-13T02:08:29.925Z,7.98
2019-01-13T02:09:29.911Z,8.00
2019-01-13T02:10:29.901Z,8.03
2019-01-13T02:11:29.895Z,8.05
2019-01-13T02:12:29.891Z,8.03
2019-01-13T02:13:30.097Z,8.05
2019-01-13T02:14:30.078Z,8.09
2019-01-13T02:15:29.866Z,8.10
2019-01-13T02:16:29.868Z,8.10
2019-01-13T02:17:29.866Z,8.01
2019-01-13T02:18:29.861Z,8.06
2019-01-13T02:19:29.844Z,8.03
2019-01-13T02:20:30.044Z,8.00
2019-01-13T02:21:30.050Z,8.06
2019-01-13T02:22:29.843Z,8.01
2019-01-13T02:23:29.838Z,8.06
2019-01-13T02:24:29.817Z,8.03
2019-01-13T02:25:29.815Z,8.12
2019-01-13T02:26:29.825Z,8.00
2019-01-13T02:27:29.803Z,8.01
2019-01-13T02:28:30.010Z,8.05
2019-01-13T02:29:29.998Z,8.00
2019-01-13T02:30:29.985Z,7.98
2019-01-13T02:31:29.976Z,8.03
2019-01-13T02:32:29.769Z,7.97
2019-01-13T02:33:29.965Z,7.98
2019-01-13T02:34:29.754Z,8.01
2019-01-13T02:35:29.774Z,7.95
2019-01-13T02:36:29.744Z,7.97
2019-01-13T02:37:29.740Z,7.94
2019-01-13T02:38:29.748Z,7.95
2019-01-13T02:39:29.929Z,8.01
2019-01-13T02:40:29.720Z,8.08
2019-01-13T02:41:29.725Z,8.01
2019-01-13T02:42:29.726Z,7.98
2019-01-13T02:43:29.704Z,7.97
2019-01-13T02:44:29.901Z,7.94
2019-01-13T02:45:29.706Z,7.98
2019-01-13T02:46:29.690Z,7.93
2019-01-13T02:47:29.683Z,8.00
2019-01-13T02:48:29.899Z,7.93
2019-01-13T02:49:29.680Z,7.97
2019-01-13T02:50:29.658Z,7.93
2019-01-13T02:51:29.864Z,7.95
2019-01-13T02:52:29.652Z,7.93
2019-01-13T02:53:29.644Z,7.88
2019-01-13T02:54:29.646Z,8.06
2019-01-13T02:55:29.644Z,7.95
2019-01-13T02:56:29.629Z,7.97
2019-01-13T02:57:29.634Z,7.94
2019-01-13T02:58:29.607Z,7.95
2019-01-13T02:59:29.628Z,7.91
2019-01-13T03:00:29.614Z,7.90
2019-01-13T03:01:29.796Z,7.94
2019-01-13T03:02:29.594Z,7.98
2019-01-13T03:03:29.596Z,7.97
2019-01-13T03:04:29.577Z,7.95
2019-01-13T03:05:29.570Z,7.93
2019-01-13T03:06:29.573Z,7.95
2019-01-13T03:07:29.574Z,7.97
2019-01-13T03:08:29.552Z,7.93
2019-01-13T03:09:29.551Z,7.91
2019-01-13T03:10:29.546Z,7.91
2019-01-13T03:11:29.534Z,8.01
2019-01-13T03:12:29.537Z,7.90
2019-01-13T03:13:29.519Z,7.91
2019-01-13T03:14:29.737Z,7.91
2019-01-13T03:15:29.528Z,7.97
2019-01-13T03:16:29.509Z,7.91
2019-01-13T03:17:29.502Z,7.97
2019-01-13T03:18:29.705Z,7.93
2019-01-13T03:19:29.497Z,7.97
2019-01-13T03:20:29.479Z,7.90
2019-01-13T03:21:29.495Z,7.91
2019-01-13T03:22:29.499Z,7.95
2019-01-13T03:23:29.469Z,7.91
2019-01-13T03:24:29.464Z,7.88
2019-01-13T03:25:29.458Z,7.90
2019-01-13T03:26:29.444Z,7.90
2019-01-13T03:27:29.651Z,7.94
2019-01-13T03:28:29.455Z,7.91
2019-01-13T03:29:29.636Z,7.90
2019-01-13T03:30:29.437Z,7.95
2019-01-13T03:31:29.435Z,7.94
2019-01-13T03:32:29.427Z,7.91
2019-01-13T03:33:29.421Z,7.88
2019-01-13T03:34:29.399Z,7.91
2019-01-13T03:35:29.418Z,8.00
2019-01-13T03:36:29.382Z,7.91
2019-01-13T03:37:29.385Z,7.91
2019-01-13T03:38:29.376Z,7.95
2019-01-13T03:39:29.376Z,7.93
2019-01-13T03:40:29.369Z,7.95
2019-01-13T03:41:29.370Z,7.90
2019-01-13T03:42:29.360Z,7.91
2019-01-13T03:43:29.353Z,7.90
2019-01-13T03:44:29.337Z,7.91
2019-01-13T03:45:31.076Z,7.87
2019-01-13T03:46:29.330Z,7.93
2019-01-13T03:47:29.320Z,7.88
2019-01-13T03:48:29.309Z,7.90
2019-01-13T03:49:29.309Z,7.79
2019-01-13T03:50:29.301Z,7.91
2019-01-13T03:51:29.305Z,7.90
2019-01-13T03:52:29.319Z,7.88
2019-01-13T03:53:29.296Z,7.95
2019-01-13T03:54:29.282Z,7.91
2019-01-13T03:55:29.285Z,7.91
2019-01-13T03:56:29.281Z,7.88
2019-01-13T03:57:29.269Z,7.88
2019-01-13T03:58:29.269Z,7.93
2019-01-13T03:59:29.251Z,7.93
2019-01-13T04:00:29.451Z,7.87
2019-01-13T04:01:29.250Z,7.91
2019-01-13T04:02:29.229Z,7.88
2019-01-13T04:03:29.224Z,7.91
2019-01-13T04:04:29.219Z,7.91
2019-01-13T04:05:29.216Z,7.91
2019-01-13T04:06:29.211Z,7.91
2019-01-13T04:07:29.207Z,7.88
2019-01-13T04:08:29.190Z,7.95
2019-01-13T04:09:29.185Z,7.90
2019-01-13T04:10:29.176Z,7.95
2019-01-13T04:11:29.182Z,7.90
2019-01-13T04:12:29.187Z,7.90
2019-01-13T04:13:29.165Z,7.94
2019-01-13T04:14:29.157Z,7.95
2019-01-13T04:15:29.163Z,7.94
2019-01-13T04:16:29.175Z,7.93
2019-01-13T04:17:29.172Z,7.94
2019-01-13T04:18:29.345Z,7.94
2019-01-13T04:19:29.128Z,7.93
2019-01-13T04:20:29.389Z,7.88
2019-01-13T04:21:29.111Z,7.90
2019-01-13T04:22:29.107Z,7.93
2019-01-13T04:23:29.303Z,7.91
2019-01-13T04:24:29.111Z,7.93
2019-01-13T04:25:29.111Z,7.90
2019-01-13T04:26:29.297Z,7.90
2019-01-13T04:27:29.085Z,7.98
2019-01-13T04:28:29.085Z,7.93
2019-01-13T04:29:29.062Z,7.98
2019-01-13T04:30:29.160Z,7.91
2019-01-13T04:31:29.056Z,7.93
2019-01-13T04:32:29.251Z,7.94
2019-01-13T04:33:29.077Z,7.94
2019-01-13T04:34:29.092Z,7.95
2019-01-13T04:35:29.036Z,7.90
2019-01-13T04:36:29.034Z,7.91
2019-01-13T04:37:29.024Z,7.95
2019-01-13T04:38:29.014Z,7.94
2019-01-13T04:39:29.027Z,7.95
2019-01-13T04:40:29.022Z,7.93
2019-01-13T04:41:28.989Z,7.93
2019-01-13T04:42:29.011Z,7.98
2019-01-13T04:43:28.988Z,7.90
2019-01-13T04:44:28.977Z,7.93
2019-01-13T04:45:28.970Z,7.95
2019-01-13T04:46:28.975Z,7.95
2019-01-13T04:47:29.023Z,7.87
2019-01-13T04:48:28.952Z,7.93
2019-01-13T04:49:29.150Z,7.88
2019-01-13T04:50:28.943Z,7.95
2019-01-13T04:51:28.963Z,7.91
2019-01-13T04:52:28.940Z,7.93
2019-01-13T04:53:29.140Z,8.05
2019-01-13T04:54:29.127Z,7.98
2019-01-13T04:55:28.924Z,7.87
2019-01-13T04:56:28.907Z,7.97
2019-01-13T04:57:29.110Z,7.91
2019-01-13T04:58:28.900Z,7.93
2019-01-13T04:59:28.894Z,7.94
2019-01-13T05:00:28.880Z,7.88
2019-01-13T05:01:34.456Z,8.00
2019-01-13T05:02:29.087Z,7.97
2019-01-13T05:03:28.864Z,7.93
2019-01-13T05:04:28.858Z,7.87
2019-01-13T05:05:28.844Z,8.00
2019-01-13T05:06:29.457Z,7.95
2019-01-13T05:07:28.843Z,7.95
2019-01-13T05:08:28.843Z,7.97
2019-01-13T05:09:28.841Z,7.97
2019-01-13T05:10:28.819Z,7.98
2019-01-13T05:11:28.829Z,7.94
2019-01-13T05:12:28.811Z,7.95
2019-01-13T05:13:28.812Z,7.91
2019-01-13T05:14:28.792Z,7.93
2019-01-13T05:15:28.807Z,7.90
2019-01-13T05:16:28.779Z,7.94
2019-01-13T05:17:28.791Z,7.91
2019-01-13T05:18:28.765Z,7.90
2019-01-13T05:19:29.016Z,7.95
2019-01-13T05:20:28.764Z,7.95
2019-01-13T05:21:28.755Z,7.95
2019-01-13T05:22:28.948Z,7.97
2019-01-13T05:23:28.738Z,7.97
2019-01-13T05:24:28.762Z,7.95
2019-01-13T05:25:28.730Z,7.97
2019-01-13T05:26:28.731Z,7.98
2019-01-13T05:27:28.732Z,7.93
2019-01-13T05:28:28.713Z,7.91
2019-01-13T05:29:28.710Z,7.98
2019-01-13T05:30:28.714Z,7.95
2019-01-13T05:31:28.692Z,7.94
2019-01-13T05:32:28.692Z,7.93
2019-01-13T05:33:28.676Z,8.01
2019-01-13T05:34:28.671Z,7.98
2019-01-13T05:35:28.690Z,7.95
2019-01-13T05:36:28.660Z,7.93
2019-01-13T05:37:28.669Z,7.98
2019-01-13T05:38:28.666Z,7.97
2019-01-13T05:39:28.653Z,7.97
2019-01-13T05:40:28.668Z,7.97
2019-01-13T05:41:28.634Z,8.08
2019-01-13T05:42:28.628Z,7.97
2019-01-13T05:43:28.628Z,7.97
2019-01-13T05:44:28.630Z,8.03
2019-01-13T05:45:28.609Z,8.00
2019-01-13T05:46:28.614Z,8.03
2019-01-13T05:47:28.615Z,8.05
2019-01-13T05:48:28.593Z,8.01
2019-01-13T05:49:28.601Z,8.03
2019-01-13T05:50:28.592Z,8.03
2019-01-13T05:51:28.585Z,8.05
2019-01-13T05:52:28.577Z,8.05
2019-01-13T05:53:28.777Z,8.09
2019-01-13T05:54:28.561Z,8.03
2019-01-13T05:55:28.564Z,8.09
2019-01-13T05:56:28.559Z,8.10
2019-01-13T05:57:28.534Z,8.09
2019-01-13T05:58:28.533Z,8.03
2019-01-13T05:59:28.531Z,8.03
2019-01-13T06:00:28.513Z,8.09
2019-01-13T06:01:28.510Z,8.08
2019-01-13T06:02:28.510Z,8.06
2019-01-13T06:03:28.510Z,8.09
2019-01-13T06:04:28.496Z,8.10
2019-01-13T06:05:28.487Z,8.15
2019-01-13T06:06:28.479Z,8.09
2019-01-13T06:07:28.481Z,8.05
2019-01-13T06:08:28.492Z,8.06
2019-01-13T06:09:28.461Z,8.05
2019-01-13T06:10:28.462Z,8.06
2019-01-13T06:11:28.465Z,8.09
2019-01-13T06:12:28.450Z,8.06
2019-01-13T06:13:28.444Z,8.15
2019-01-13T06:14:28.449Z,8.06
2019-01-13T06:15:28.442Z,8.10
2019-01-13T06:16:28.423Z,8.15
2019-01-13T06:17:28.420Z,8.19
2019-01-13T06:18:28.408Z,8.08
2019-01-13T06:19:28.408Z,8.08
2019-01-13T06:20:28.611Z,8.09
2019-01-13T06:21:28.394Z,8.08
2019-01-13T06:22:28.602Z,8.09
2019-01-13T06:23:28.398Z,8.13
2019-01-13T06:24:28.573Z,8.13
2019-01-13T06:25:28.571Z,8.19
2019-01-13T06:26:28.369Z,8.18
2019-01-13T06:27:28.365Z,8.13
2019-01-13T06:28:28.366Z,8.15
2019-01-13T06:29:28.345Z,8.19
2019-01-13T06:30:28.336Z,8.20
2019-01-13T06:31:28.337Z,8.15
2019-01-13T06:32:28.337Z,8.20
2019-01-13T06:33:28.323Z,8.18
2019-01-13T06:34:28.323Z,8.18
2019-01-13T06:35:28.324Z,8.23
2019-01-13T06:36:28.302Z,8.20
2019-01-13T06:37:28.304Z,8.16
2019-01-13T06:38:28.306Z,8.16
2019-01-13T06:39:28.301Z,8.27
2019-01-13T06:40:28.326Z,8.16
2019-01-13T06:41:28.283Z,8.23
2019-01-13T06:42:28.269Z,8.16
2019-01-13T06:43:28.268Z,8.24
2019-01-13T06:44:28.256Z,8.27
2019-01-13T06:45:28.265Z,8.23
2019-01-13T06:46:28.246Z,8.24
2019-01-13T06:47:28.438Z,8.19
2019-01-13T06:48:28.247Z,8.24
2019-01-13T06:49:28.221Z,8.26
2019-01-13T06:50:28.236Z,8.23
2019-01-13T06:51:28.207Z,8.23
2019-01-13T06:52:28.215Z,8.28
2019-01-13T06:53:28.403Z,8.23
2019-01-13T06:54:28.404Z,8.20
2019-01-13T06:55:28.188Z,8.20
2019-01-13T06:56:28.182Z,8.24
2019-01-13T06:57:28.209Z,8.24
2019-01-13T06:58:28.172Z,8.23
2019-01-13T06:59:28.161Z,8.19
2019-01-13T07:00:28.177Z,8.23
2019-01-13T07:01:28.180Z,8.36
2019-01-13T07:02:28.362Z,8.28
2019-01-13T07:03:28.154Z,8.33
2019-01-13T07:04:28.135Z,8.27
2019-01-13T07:05:28.136Z,8.27
2019-01-13T07:06:28.133Z,8.26
2019-01-13T07:07:28.119Z,8.37
2019-01-13T07:08:28.111Z,8.27
2019-01-13T07:09:28.101Z,8.36
2019-01-13T07:10:28.126Z,8.28
2019-01-13T07:11:28.088Z,8.38
2019-01-13T07:12:28.107Z,8.26
2019-01-13T07:13:28.099Z,8.26
2019-01-13T07:14:28.088Z,8.26
2019-01-13T07:15:28.076Z,8.41
2019-01-13T07:16:28.061Z,8.42
2019-01-13T07:17:28.053Z,8.26
2019-01-13T07:18:28.052Z,8.30
2019-01-13T07:19:28.054Z,8.27
2019-01-13T07:20:28.070Z,8.36
2019-01-13T07:21:28.036Z,8.38
2019-01-13T07:22:28.031Z,8.37
2019-01-13T07:23:28.029Z,8.33
2019-01-13T07:24:28.016Z,8.34
2019-01-13T07:25:28.004Z,8.37
2019-01-13T07:26:28.214Z,8.30
2019-01-13T07:27:28.002Z,8.30
2019-01-13T07:28:27.986Z,8.37
2019-01-13T07:29:27.982Z,8.38
2019-01-13T07:30:27.975Z,8.36
2019-01-13T07:31:27.989Z,8.33
2019-01-13T07:32:27.974Z,8.36
2019-01-13T07:33:27.968Z,8.44
2019-01-13T07:34:27.969Z,8.44
2019-01-13T07:35:27.948Z,8.45
2019-01-13T07:36:27.962Z,8.53
2019-01-13T07:37:27.940Z,8.52
2019-01-13T07:38:27.933Z,8.53
2019-01-13T07:39:27.942Z,8.42
2019-01-13T07:40:27.932Z,8.45
2019-01-13T07:41:27.911Z,8.55
2019-01-13T07:42:27.908Z,8.45
2019-01-13T07:43:27.930Z,8.45
2019-01-13T07:44:27.911Z,8.44
2019-01-13T07:45:27.923Z,8.52
2019-01-13T07:46:27.889Z,8.52
2019-01-13T07:47:27.877Z,8.52
2019-01-13T07:48:27.880Z,8.53
2019-01-13T07:49:27.868Z,8.52
2019-01-13T07:50:27.875Z,8.52
2019-01-13T07:51:27.885Z,8.51
2019-01-13T07:52:27.852Z,8.49
2019-01-13T07:53:28.247Z,8.60
2019-01-13T07:54:27.841Z,8.58
2019-01-13T07:55:27.848Z,8.60
2019-01-13T07:56:27.830Z,8.60
2019-01-13T07:57:27.829Z,8.61
2019-01-13T07:58:27.830Z,8.58
2019-01-13T07:59:27.821Z,8.56
2019-01-13T08:00:27.803Z,8.55
2019-01-13T08:01:27.798Z,8.58
2019-01-13T08:02:27.806Z,8.61
2019-01-13T08:03:27.790Z,8.56
2019-01-13T08:04:27.779Z,8.58
2019-01-13T08:05:27.784Z,8.56
2019-01-13T08:06:27.783Z,8.61
2019-01-13T08:07:27.779Z,8.63
2019-01-13T08:08:27.756Z,8.69
2019-01-13T08:09:27.769Z,8.70
2019-01-13T08:10:27.770Z,8.71
2019-01-13T08:11:27.742Z,8.67
2019-01-13T08:12:27.734Z,8.69
2019-01-13T08:13:27.721Z,8.64
2019-01-13T08:14:27.724Z,8.64
2019-01-13T08:15:27.712Z,8.67
2019-01-13T08:16:27.710Z,8.58
2019-01-13T08:17:27.710Z,8.66
2019-01-13T08:18:27.701Z,8.69
2019-01-13T08:19:27.689Z,8.70
2019-01-13T08:20:27.681Z,8.71
2019-01-13T08:21:27.686Z,8.71
2019-01-13T08:22:27.673Z,8.78
2019-01-13T08:23:27.673Z,8.70
2019-01-13T08:24:29.076Z,8.67
2019-01-13T08:25:27.659Z,8.76
2019-01-13T08:26:27.878Z,8.73
2019-01-13T08:27:27.648Z,8.71
2019-01-13T08:28:27.655Z,8.73
2019-01-13T08:29:27.637Z,8.82
2019-01-13T08:30:27.842Z,8.73
2019-01-13T08:31:27.635Z,8.79
2019-01-13T08:32:27.833Z,8.82
2019-01-13T08:33:27.819Z,8.81
2019-01-13T08:34:27.610Z,8.79
2019-01-13T08:35:27.602Z,8.82
2019-01-13T08:36:27.600Z,8.82
2019-01-13T08:37:27.588Z,8.82
2019-01-13T08:38:27.602Z,8.79
2019-01-13T08:39:27.589Z,8.79
2019-01-13T08:40:27.567Z,8.88
2019-01-13T08:41:27.587Z,8.92
2019-01-13T08:42:27.588Z,8.88
2019-01-13T08:43:27.554Z,8.92
2019-01-13T08:44:27.540Z,8.84
2019-01-13T08:45:27.541Z,8.97
2019-01-13T08:46:27.526Z,8.92
2019-01-13T08:47:27.549Z,8.97
2019-01-13T08:48:27.551Z,8.95
2019-01-13T08:49:27.527Z,8.87
2019-01-13T08:50:27.507Z,8.94
2019-01-13T08:51:27.516Z,8.91
2019-01-13T08:52:27.502Z,9.00
2019-01-13T08:53:27.496Z,8.97
2019-01-13T08:54:27.506Z,9.00
2019-01-13T08:55:27.681Z,9.00
2019-01-13T08:56:27.471Z,9.03
2019-01-13T08:57:27.472Z,9.00
2019-01-13T08:58:27.462Z,9.10
2019-01-13T08:59:27.473Z,9.13
2019-01-13T09:00:27.460Z,9.03
2019-01-13T09:01:27.444Z,9.03
2019-01-13T09:02:32.182Z,8.99
2019-01-13T09:03:27.455Z,9.06
2019-01-13T09:04:27.434Z,9.13
2019-01-13T09:05:27.422Z,9.14
2019-01-13T09:06:27.417Z,9.11
2019-01-13T09:07:27.438Z,9.14
2019-01-13T09:08:27.431Z,9.06
2019-01-13T09:09:27.415Z,9.16
2019-01-13T09:10:27.395Z,9.11
2019-01-13T09:11:27.388Z,9.16
2019-01-13T09:12:27.378Z,9.10
2019-01-13T09:13:27.380Z,9.14
2019-01-13T09:14:27.368Z,9.11
2019-01-13T09:15:27.365Z,9.14
2019-01-13T09:16:27.367Z,9.11
2019-01-13T09:17:27.355Z,9.11
2019-01-13T09:18:27.347Z,9.13
2019-01-13T09:19:27.337Z,9.10
2019-01-13T09:20:27.337Z,9.19
2019-01-13T09:21:27.337Z,9.13
2019-01-13T09:22:27.319Z,9.22
2019-01-13T09:23:27.311Z,9.10
2019-01-13T09:24:27.306Z,9.18
2019-01-13T09:25:27.311Z,9.10
2019-01-13T09:26:27.302Z,9.10
2019-01-13T09:27:27.299Z,9.21
2019-01-13T09:28:27.287Z,9.14
2019-01-13T09:29:27.291Z,9.14
2019-01-13T09:30:27.280Z,9.11
2019-01-13T09:31:27.270Z,9.13
2019-01-13T09:32:27.276Z,9.14
2019-01-13T09:33:27.259Z,9.10
2019-01-13T09:34:27.262Z,9.13
2019-01-13T09:35:27.250Z,9.18
2019-01-13T09:36:27.237Z,9.22
2019-01-13T09:37:27.243Z,9.22
2019-01-13T09:38:27.233Z,9.14
2019-01-13T09:39:27.237Z,9.13
2019-01-13T09:40:27.226Z,9.14
2019-01-13T09:41:27.226Z,9.22
2019-01-13T09:42:27.203Z,9.14
2019-01-13T09:43:27.201Z,9.14
2019-01-13T09:44:27.199Z,9.23
2019-01-13T09:45:27.182Z,9.19
2019-01-13T09:46:27.184Z,9.23
2019-01-13T09:47:27.185Z,9.16
2019-01-13T09:48:27.168Z,9.23
2019-01-13T09:49:27.164Z,9.18
2019-01-13T09:50:27.179Z,9.14
2019-01-13T09:51:27.154Z,9.13
2019-01-13T09:52:27.143Z,9.23
2019-01-13T09:53:27.155Z,9.22
2019-01-13T09:54:27.147Z,9.18
2019-01-13T09:55:27.134Z,9.18
2019-01-13T09:56:27.130Z,9.14
2019-01-13T09:57:27.126Z,9.19
2019-01-13T09:58:27.106Z,9.14
2019-01-13T09:59:27.100Z,9.23
2019-01-13T10:00:27.097Z,9.22
2019-01-13T10:01:27.095Z,9.18
2019-01-13T10:02:27.084Z,9.18
2019-01-13T10:03:27.088Z,9.14
2019-01-13T10:04:27.092Z,9.18
2019-01-13T10:05:27.080Z,9.21
2019-01-13T10:06:27.061Z,9.16
2019-01-13T10:07:27.071Z,9.16
2019-01-13T10:08:27.056Z,9.19
2019-01-13T10:09:27.054Z,9.13
2019-01-13T10:10:27.059Z,9.10
2019-01-13T10:11:27.035Z,9.18
2019-01-13T10:12:27.030Z,9.19
2019-01-13T10:13:27.019Z,9.11
2019-01-13T10:14:27.225Z,9.16
2019-01-13T10:15:27.022Z,9.19
2019-01-13T10:16:27.020Z,9.16
2019-01-13T10:17:27.010Z,9.21
2019-01-13T10:18:26.995Z,9.22
2019-01-13T10:19:26.996Z,9.13
2019-01-13T10:20:26.999Z,9.21
2019-01-13T10:21:26.995Z,9.11
2019-01-13T10:22:26.978Z,9.13
2019-01-13T10:23:26.970Z,9.11
2019-01-13T10:24:26.956Z,9.16
2019-01-13T10:25:27.161Z,9.13
2019-01-13T10:26:26.973Z,9.11
2019-01-13T10:27:26.941Z,9.10
2019-01-13T10:28:26.942Z,9.22
2019-01-13T10:29:26.926Z,9.14
2019-01-13T10:30:26.924Z,9.14
2019-01-13T10:31:26.938Z,9.14
2019-01-13T10:32:26.975Z,9.23
2019-01-13T10:33:26.917Z,9.14
2019-01-13T10:34:26.917Z,9.10
2019-01-13T10:35:26.900Z,9.14
2019-01-13T10:36:26.904Z,9.16
2019-01-13T10:37:26.888Z,9.21
2019-01-13T10:38:26.883Z,9.22
2019-01-13T10:39:26.885Z,9.21
2019-01-13T10:40:26.882Z,9.23
2019-01-13T10:41:26.861Z,9.22
2019-01-13T10:42:26.872Z,9.19
2019-01-13T10:43:26.846Z,9.13
2019-01-13T10:44:26.852Z,9.16
2019-01-13T10:45:26.850Z,9.18
2019-01-13T10:46:26.833Z,9.14
2019-01-13T10:47:26.823Z,9.18
2019-01-13T10:48:26.829Z,9.18
2019-01-13T10:49:26.812Z,9.16
2019-01-13T10:50:26.807Z,9.13
2019-01-13T10:51:26.816Z,9.21
2019-01-13T10:52:26.800Z,9.23
2019-01-13T10:53:26.802Z,9.18
2019-01-13T10:54:26.797Z,9.14
2019-01-13T10:55:26.783Z,9.13
2019-01-13T10:56:26.777Z,9.19
2019-01-13T10:57:26.779Z,9.19
2019-01-13T10:58:26.765Z,9.22
2019-01-13T10:59:26.767Z,9.19
2019-01-13T11:00:26.764Z,9.21
2019-01-13T11:01:28.176Z,9.19
2019-01-13T11:02:26.766Z,9.18
2019-01-13T11:03:26.746Z,9.16
2019-01-13T11:04:26.728Z,9.18
2019-01-13T11:05:26.732Z,9.18
2019-01-13T11:06:26.725Z,9.19
2019-01-13T11:07:26.719Z,9.25
2019-01-13T11:08:26.727Z,9.26
2019-01-13T11:09:26.730Z,9.25
2019-01-13T11:10:26.701Z,9.25
2019-01-13T11:11:26.705Z,9.25
2019-01-13T11:12:26.682Z,9.29
2019-01-13T11:13:26.691Z,9.31
2019-01-13T11:14:26.706Z,9.25
2019-01-13T11:15:26.675Z,9.32
2019-01-13T11:16:26.663Z,9.29
2019-01-13T11:17:26.679Z,9.32
2019-01-13T11:18:26.665Z,9.32
2019-01-13T11:19:26.645Z,9.40
2019-01-13T11:20:26.643Z,9.32
2019-01-13T11:21:26.634Z,9.25
2019-01-13T11:22:26.643Z,9.29
2019-01-13T11:23:26.824Z,9.31
2019-01-13T11:24:26.829Z,9.25
2019-01-13T11:25:26.623Z,9.29
2019-01-13T11:26:26.613Z,9.34
2019-01-13T11:27:26.617Z,9.26
2019-01-13T11:28:26.802Z,9.28
2019-01-13T11:29:32.683Z,9.29
2019-01-13T11:30:26.594Z,9.26
2019-01-13T11:31:26.588Z,9.34
2019-01-13T11:32:26.573Z,9.25
2019-01-13T11:33:26.567Z,9.26
2019-01-13T11:34:26.778Z,9.29
2019-01-13T11:35:26.550Z,9.29
2019-01-13T11:36:26.549Z,9.32
2019-01-13T11:37:26.564Z,9.25
2019-01-13T11:38:26.540Z,9.29
2019-01-13T11:39:26.747Z,9.28
2019-01-13T11:40:26.537Z,9.32
2019-01-13T11:41:26.546Z,9.37
2019-01-13T11:42:26.510Z,9.28
2019-01-13T11:43:26.502Z,9.31
2019-01-13T11:44:26.502Z,9.29
2019-01-13T11:45:26.496Z,9.39
2019-01-13T11:46:26.493Z,9.34
2019-01-13T11:47:26.489Z,9.36
2019-01-13T11:48:26.690Z,9.40
2019-01-13T11:49:26.475Z,9.23
2019-01-13T11:50:26.476Z,9.25
2019-01-13T11:51:26.477Z,9.28
2019-01-13T11:52:26.454Z,9.28
2019-01-13T11:53:26.488Z,9.34
2019-01-13T11:54:26.451Z,9.23
2019-01-13T11:55:26.446Z,9.26
2019-01-13T11:56:26.448Z,9.32
2019-01-13T11:57:26.447Z,9.29
2019-01-13T11:58:26.634Z,9.31
2019-01-13T11:59:26.434Z,9.37
2019-01-13T12:00:26.430Z,9.39
2019-01-13T12:01:26.429Z,9.36
2019-01-13T12:02:32.514Z,9.28
2019-01-13T12:03:26.418Z,9.36
2019-01-13T12:04:26.412Z,9.32
2019-01-13T12:05:26.411Z,9.29
2019-01-13T12:06:26.415Z,9.39
2019-01-13T12:07:26.396Z,9.36
2019-01-13T12:08:26.393Z,9.28
2019-01-13T12:09:26.389Z,9.32
2019-01-13T12:10:26.584Z,9.28
2019-01-13T12:11:26.388Z,9.34
2019-01-13T12:12:26.374Z,9.32
2019-01-13T12:13:26.372Z,9.29
2019-01-13T12:14:26.379Z,9.31
2019-01-13T12:15:26.371Z,9.39
2019-01-13T12:16:26.563Z,9.40
2019-01-13T12:17:26.558Z,9.31
2019-01-13T12:18:26.376Z,9.36
2019-01-13T12:19:26.361Z,9.34
2019-01-13T12:20:26.346Z,9.37
2019-01-13T12:21:26.344Z,9.39
2019-01-13T12:22:26.354Z,9.32
2019-01-13T12:23:26.345Z,9.31
2019-01-13T12:24:26.354Z,9.36
2019-01-13T12:25:26.355Z,9.37
2019-01-13T12:26:26.337Z,9.29
2019-01-13T12:27:26.323Z,9.34
2019-01-13T12:28:26.519Z,9.32
2019-01-13T12:29:26.540Z,9.29
2019-01-13T12:30:26.514Z,9.29
2019-01-13T12:31:26.320Z,9.32
2019-01-13T12:32:26.309Z,9.29
2019-01-13T12:33:26.305Z,9.32
2019-01-13T12:34:26.312Z,9.36
2019-01-13T12:35:26.313Z,9.36
2019-01-13T12:36:26.294Z,9.36
2019-01-13T12:37:26.299Z,9.34
2019-01-13T12:38:26.487Z,9.39
2019-01-13T12:39:26.294Z,9.31
2019-01-13T12:40:26.494Z,9.31
2019-01-13T12:41:26.288Z,9.36
2019-01-13T12:42:27.412Z,9.34
2019-01-13T12:43:26.268Z,9.32
2019-01-13T12:44:26.272Z,9.28
2019-01-13T12:45:26.272Z,9.36
2019-01-13T12:46:26.271Z,9.32
2019-01-13T12:47:26.249Z,9.28
2019-01-13T12:48:26.249Z,9.29
2019-01-13T12:49:26.252Z,9.31
2019-01-13T12:50:26.238Z,9.26
2019-01-13T12:51:26.433Z,9.34
2019-01-13T12:52:26.250Z,9.32
2019-01-13T12:53:26.234Z,9.28
2019-01-13T12:54:26.429Z,9.29
2019-01-13T12:55:26.242Z,9.28
2019-01-13T12:56:26.215Z,9.28
2019-01-13T12:57:26.433Z,9.34
2019-01-13T12:58:26.204Z,9.34
2019-01-13T12:59:26.199Z,9.29
2019-01-13T13:00:26.203Z,9.28
2019-01-13T13:01:26.412Z,9.34
2019-01-13T13:02:26.207Z,9.32
2019-01-13T13:03:31.648Z,9.31
2019-01-13T13:04:26.183Z,9.31
2019-01-13T13:05:26.194Z,9.31
2019-01-13T13:06:26.188Z,9.37
2019-01-13T13:07:26.186Z,9.32
2019-01-13T13:08:26.176Z,9.29
2019-01-13T13:09:26.180Z,9.31
2019-01-13T13:10:26.187Z,9.28
2019-01-13T13:11:26.187Z,9.34
2019-01-13T13:12:26.167Z,9.32
2019-01-13T13:13:26.183Z,9.39
2019-01-13T13:14:26.153Z,9.37
2019-01-13T13:15:26.153Z,9.32
2019-01-13T13:16:26.142Z,9.39
2019-01-13T13:17:26.138Z,9.41
2019-01-13T13:18:26.160Z,9.34